createdAt,value
2022-08-26T00:00:18.869Z,27.7
2022-08-26T00:01:24.170Z,27.7
2022-08-26T00:02:22.582Z,27.7
2022-08-26T00:03:24.284Z,27.6
2022-08-26T00:04:26.503Z,27.6
2022-08-26T00:05:28.510Z,27.6
2022-08-26T00:06:30.306Z,27.5
2022-08-26T00:07:32.275Z,27.5
2022-08-26T00:08:34.286Z,27.5
2022-08-26T00:09:37.399Z,27.5
2022-08-26T00:10:38.518Z,27.5
2022-08-26T00:11:40.234Z,27.5
2022-08-26T00:12:41.226Z,27.5
2022-08-26T00:13:42.230Z,27.4
2022-08-26T00:14:43.294Z,27.5
2022-08-26T00:15:44.239Z,27.4
2022-08-26T00:16:47.106Z,27.4
2022-08-26T00:17:46.232Z,27.4
2022-08-26T00:18:47.239Z,27.4
2022-08-26T00:19:48.262Z,27.4
2022-08-26T00:20:49.262Z,27.3
2022-08-26T00:21:50.245Z,27.3
2022-08-26T00:22:51.244Z,27.3
2022-08-26T00:23:52.479Z,27.3
2022-08-26T00:24:54.328Z,27.3
2022-08-26T00:25:55.297Z,27.3
2022-08-26T00:26:56.258Z,27.3
2022-08-26T00:27:57.265Z,27.3
2022-08-26T00:28:58.299Z,27.3
2022-08-26T00:29:59.288Z,27.3
2022-08-26T00:31:00.259Z,27.3
2022-08-26T00:32:01.373Z,27.3
2022-08-26T00:33:02.265Z,27.3
2022-08-26T00:34:03.275Z,27.3
2022-08-26T00:35:04.354Z,27.3
2022-08-26T00:36:05.316Z,27.3
2022-08-26T00:37:09.094Z,27.3
2022-08-26T00:38:07.277Z,27.2
2022-08-26T00:39:08.277Z,27.3
2022-08-26T00:40:09.357Z,27.3
2022-08-26T00:41:10.333Z,27.2
2022-08-26T00:42:11.280Z,27.2
2022-08-26T00:43:12.312Z,27.2
2022-08-26T00:44:13.286Z,27.2
2022-08-26T00:45:14.294Z,27.1
2022-08-26T00:46:15.325Z,27
2022-08-26T00:47:16.299Z,27
2022-08-26T00:48:17.300Z,27
2022-08-26T00:49:18.296Z,27.1
2022-08-26T00:50:19.352Z,27
2022-08-26T00:51:20.333Z,26.9
2022-08-26T00:52:21.309Z,26.9
2022-08-26T00:53:24.226Z,26.9
2022-08-26T00:54:23.345Z,26.9
2022-08-26T00:55:24.338Z,26.9
2022-08-26T00:56:25.308Z,26.9
2022-08-26T00:57:26.343Z,26.9
2022-08-26T00:58:27.310Z,26.9
2022-08-26T00:59:28.307Z,26.8
2022-08-26T01:00:29.408Z,26.8
2022-08-26T01:01:30.320Z,26.8
2022-08-26T01:02:31.367Z,26.7
2022-08-26T01:03:32.357Z,26.6
2022-08-26T01:04:33.326Z,26.5
2022-08-26T01:05:34.469Z,26.5
2022-08-26T01:06:36.361Z,26.5
2022-08-26T01:07:37.323Z,26.4
2022-08-26T01:08:38.326Z,26.4
2022-08-26T01:09:39.338Z,26.4
2022-08-26T01:10:40.364Z,26.4
2022-08-26T01:11:41.740Z,26.3
2022-08-26T01:12:43.331Z,26.3
2022-08-26T01:13:44.339Z,26.3
2022-08-26T01:14:46.385Z,26.3
2022-08-26T01:15:47.422Z,26.2
2022-08-26T01:16:48.457Z,26.2
2022-08-26T01:17:49.339Z,26.2
2022-08-26T01:18:50.347Z,26.3
2022-08-26T01:19:51.352Z,26.3
2022-08-26T01:20:52.347Z,26.3
2022-08-26T01:21:53.420Z,26.4
2022-08-26T01:22:54.351Z,26.5
2022-08-26T01:23:57.337Z,26.5
2022-08-26T01:24:56.356Z,26.5
2022-08-26T01:25:57.359Z,26.5
2022-08-26T01:26:58.428Z,26.5
2022-08-26T01:27:59.374Z,26.5
2022-08-26T01:29:00.374Z,26.5
2022-08-26T01:30:01.411Z,26.6
2022-08-26T01:31:02.367Z,26.6
2022-08-26T01:32:03.419Z,26.6
2022-08-26T01:33:04.384Z,26.6
2022-08-26T01:34:05.411Z,26.6
2022-08-26T01:35:06.379Z,26.6
2022-08-26T01:36:07.375Z,26.6
2022-08-26T01:37:08.408Z,26.6
2022-08-26T01:38:09.375Z,26.6
2022-08-26T01:39:10.423Z,26.6
2022-08-26T01:40:11.472Z,26.6
2022-08-26T01:41:16.219Z,26.6
2022-08-26T01:42:13.386Z,26.6
2022-08-26T01:43:14.378Z,26.6
2022-08-26T01:44:15.407Z,26.6
2022-08-26T01:45:16.476Z,26.5
2022-08-26T01:46:17.461Z,26.4
2022-08-26T01:47:18.390Z,26.4
2022-08-26T01:48:19.399Z,26.4
2022-08-26T01:49:20.430Z,26.4
2022-08-26T01:50:27.948Z,26.3
2022-08-26T01:51:22.480Z,26.3
2022-08-26T01:52:23.449Z,26.4
2022-08-26T01:53:24.414Z,26.4
2022-08-26T01:54:25.409Z,26.4
2022-08-26T01:55:32.508Z,26.4
2022-08-26T01:56:33.046Z,26.4
2022-08-26T01:57:28.418Z,26.4
2022-08-26T01:58:29.413Z,26.4
2022-08-26T01:59:30.418Z,26.4
2022-08-26T02:00:31.457Z,26.4
2022-08-26T02:01:32.424Z,26.4
2022-08-26T02:02:33.460Z,26.4
2022-08-26T02:03:34.451Z,26.4
2022-08-26T02:04:35.455Z,26.5
2022-08-26T02:05:36.454Z,26.5
2022-08-26T02:06:37.425Z,26.5
2022-08-26T02:07:38.518Z,26.5
2022-08-26T02:08:40.469Z,26.5
2022-08-26T02:09:41.656Z,26.5
2022-08-26T02:10:42.577Z,26.5
2022-08-26T02:11:44.437Z,26.4
2022-08-26T02:12:45.503Z,26.4
2022-08-26T02:13:47.493Z,26.4
2022-08-26T02:14:48.443Z,26.4
2022-08-26T02:15:49.433Z,26.4
2022-08-26T02:16:50.433Z,26.3
2022-08-26T02:17:52.620Z,26.3
2022-08-26T02:18:52.878Z,26.3
2022-08-26T02:19:53.458Z,26.3
2022-08-26T02:22:45.034Z,26.2
2022-08-26T02:23:44.534Z,26.3
2022-08-26T02:24:45.467Z,26.3
2022-08-26T02:25:46.510Z,26.2
2022-08-26T02:26:47.457Z,26.2
2022-08-26T02:27:48.470Z,26.1
2022-08-26T02:28:49.518Z,26.1
2022-08-26T02:29:50.465Z,26
2022-08-26T02:30:51.473Z,25.9
2022-08-26T02:31:52.525Z,25.8
2022-08-26T02:32:53.487Z,25.8
2022-08-26T02:33:54.514Z,25.7
2022-08-26T02:34:55.519Z,25.8
2022-08-26T02:35:56.517Z,25.8
2022-08-26T02:36:57.491Z,25.8
2022-08-26T02:37:58.492Z,25.8
2022-08-26T02:38:59.754Z,25.8
2022-08-26T02:40:01.567Z,25.9
2022-08-26T02:41:02.519Z,25.9
2022-08-26T02:42:03.527Z,25.9
2022-08-26T02:43:04.491Z,25.9
2022-08-26T02:44:05.486Z,25.9
2022-08-26T02:45:06.539Z,25.9
2022-08-26T02:46:07.550Z,25.9
2022-08-26T02:47:08.608Z,25.9
2022-08-26T02:48:09.516Z,25.9
2022-08-26T02:49:10.521Z,25.9
2022-08-26T02:50:11.507Z,25.9
2022-08-26T02:51:12.498Z,25.9
2022-08-26T02:52:13.533Z,25.9
2022-08-26T02:53:14.502Z,25.9
2022-08-26T02:54:15.542Z,25.9
2022-08-26T02:55:16.542Z,25.9
2022-08-26T02:56:17.576Z,25.9
2022-08-26T02:57:18.530Z,25.9
2022-08-26T02:58:19.853Z,25.9
2022-08-26T02:59:24.340Z,25.9
2022-08-26T03:00:22.574Z,25.9
2022-08-26T03:01:23.631Z,25.8
2022-08-26T03:02:24.548Z,25.8
2022-08-26T03:03:25.550Z,25.8
2022-08-26T03:04:26.540Z,25.8
2022-08-26T03:05:27.531Z,25.8
2022-08-26T03:06:28.591Z,25.8
2022-08-26T03:07:29.528Z,25.8
2022-08-26T03:08:30.535Z,25.8
2022-08-26T03:09:31.538Z,25.8
2022-08-26T03:10:32.532Z,25.8
2022-08-26T03:11:33.582Z,25.7
2022-08-26T03:12:34.531Z,25.7
2022-08-26T03:13:35.542Z,25.8
2022-08-26T03:14:36.589Z,25.7
2022-08-26T03:15:37.545Z,25.7
2022-08-26T03:16:38.539Z,25.7
2022-08-26T03:17:39.690Z,25.7
2022-08-26T03:18:41.554Z,25.7
2022-08-26T03:19:42.562Z,25.6
2022-08-26T03:20:43.890Z,25.6
2022-08-26T03:21:44.588Z,25.5
2022-08-26T03:22:45.587Z,25.4
2022-08-26T03:23:46.561Z,25.4
2022-08-26T03:24:47.556Z,25.4
2022-08-26T03:25:48.566Z,25.4
2022-08-26T03:26:51.952Z,25.3
2022-08-26T03:27:50.590Z,25.2
2022-08-26T03:28:51.557Z,25.2
2022-08-26T03:29:52.563Z,25.3
2022-08-26T03:30:53.610Z,25.3
2022-08-26T03:31:54.578Z,25.3
2022-08-26T03:32:55.618Z,25.3
2022-08-26T03:33:59.260Z,25.4
2022-08-26T03:34:57.608Z,25.4
2022-08-26T03:35:58.574Z,25.4
2022-08-26T03:36:59.583Z,25.4
2022-08-26T03:38:00.583Z,25.4
2022-08-26T03:39:01.610Z,25.4
2022-08-26T03:40:02.696Z,25.4
2022-08-26T03:41:03.597Z,25.4
2022-08-26T03:42:04.639Z,25.4
2022-08-26T03:43:05.588Z,25.4
2022-08-26T03:44:06.655Z,25.3
2022-08-26T03:45:07.674Z,25.3
2022-08-26T03:46:08.633Z,25.3
2022-08-26T03:47:09.607Z,25.3
2022-08-26T03:48:10.612Z,25.3
2022-08-26T03:49:11.600Z,25.3
2022-08-26T03:50:12.644Z,25.3
2022-08-26T03:51:13.667Z,25.3
2022-08-26T03:52:14.603Z,25.3
2022-08-26T03:53:15.608Z,25.3
2022-08-26T03:54:16.619Z,25.3
2022-08-26T03:55:17.607Z,25.3
2022-08-26T03:56:18.646Z,25.4
2022-08-26T03:57:19.614Z,25.4
2022-08-26T03:58:20.617Z,25.3
2022-08-26T03:59:21.614Z,25.3
2022-08-26T04:00:23.555Z,25.4
2022-08-26T04:01:24.668Z,25.4
2022-08-26T04:02:25.649Z,25.4
2022-08-26T04:03:26.661Z,25.4
2022-08-26T04:04:27.628Z,25.4
2022-08-26T04:05:28.658Z,25.4
2022-08-26T04:06:29.626Z,25.4
2022-08-26T04:07:32.014Z,25.4
2022-08-26T04:08:31.634Z,25.4
2022-08-26T04:09:32.629Z,25.4
2022-08-26T04:10:33.666Z,25.3
2022-08-26T04:11:34.754Z,25.3
2022-08-26T04:12:35.679Z,25.4
2022-08-26T04:13:36.682Z,25.4
2022-08-26T04:14:37.738Z,25.4
2022-08-26T04:15:38.676Z,25.4
2022-08-26T04:16:39.729Z,25.4
2022-08-26T04:17:41.638Z,25.4
2022-08-26T04:18:46.502Z,25.4
2022-08-26T04:19:43.664Z,25.3
2022-08-26T04:20:44.671Z,25.4
2022-08-26T04:21:45.761Z,25.3
2022-08-26T04:22:47.657Z,25.3
2022-08-26T04:23:48.664Z,25.4
2022-08-26T04:24:49.648Z,25.3
2022-08-26T04:25:50.673Z,25.3
2022-08-26T04:26:51.736Z,25.2
2022-08-26T04:27:52.668Z,25.2
2022-08-26T04:28:53.668Z,25.2
2022-08-26T04:29:55.247Z,25.2
2022-08-26T04:30:55.705Z,25.2
2022-08-26T04:31:56.701Z,25.2
2022-08-26T04:32:57.673Z,25.3
2022-08-26T04:33:58.668Z,25.3
2022-08-26T04:34:59.679Z,25.3
2022-08-26T04:36:00.716Z,25.4
2022-08-26T04:37:01.776Z,25.3
2022-08-26T04:38:03.693Z,25.3
2022-08-26T04:39:04.682Z,25.3
2022-08-26T04:40:06.063Z,25.2
2022-08-26T04:41:15.116Z,25.3
2022-08-26T04:42:08.719Z,25.3
2022-08-26T04:43:09.765Z,25.3
2022-08-26T04:44:10.968Z,25.3
2022-08-26T04:45:12.723Z,25.4
2022-08-26T04:46:13.843Z,25.5
2022-08-26T04:47:14.724Z,25.6
2022-08-26T04:48:16.875Z,25.7
2022-08-26T04:49:16.740Z,25.7
2022-08-26T04:50:17.699Z,25.8
2022-08-26T04:51:18.709Z,25.9
2022-08-26T04:52:19.710Z,26
2022-08-26T04:53:20.737Z,26
2022-08-26T04:54:21.712Z,26.1
2022-08-26T04:55:25.159Z,26.2
2022-08-26T04:56:23.717Z,26.2
2022-08-26T04:57:24.722Z,26.3
2022-08-26T04:58:25.742Z,26.3
2022-08-26T04:59:26.717Z,26.3
2022-08-26T05:00:27.710Z,26.4
2022-08-26T05:01:28.781Z,26.4
2022-08-26T05:02:29.778Z,26.4
2022-08-26T05:03:31.762Z,26.4
2022-08-26T05:04:32.751Z,26.4
2022-08-26T05:05:33.733Z,26.3
2022-08-26T05:06:36.888Z,26.3
2022-08-26T05:07:35.731Z,26.3
2022-08-26T05:08:36.735Z,26.3
2022-08-26T05:09:37.779Z,26.4
2022-08-26T05:10:38.739Z,26.4
2022-08-26T05:11:39.769Z,26.4
2022-08-26T05:12:40.740Z,26.4
2022-08-26T05:13:41.740Z,26.4
2022-08-26T05:14:42.770Z,26.4
2022-08-26T05:15:43.800Z,26.5
2022-08-26T05:16:44.778Z,26.5
2022-08-26T05:17:45.767Z,26.6
2022-08-26T05:18:46.754Z,26.7
2022-08-26T05:19:47.792Z,26.7
2022-08-26T05:20:48.748Z,26.7
2022-08-26T05:21:49.990Z,26.8
2022-08-26T05:22:51.755Z,26.8
2022-08-26T05:23:52.755Z,26.9
2022-08-26T05:24:53.784Z,27
2022-08-26T05:25:59.033Z,27
2022-08-26T05:26:56.502Z,27
2022-08-26T05:27:57.767Z,26.9
2022-08-26T05:28:58.771Z,26.9
2022-08-26T05:29:59.772Z,27
2022-08-26T05:31:00.862Z,27.1
2022-08-26T05:32:01.833Z,27.2
2022-08-26T05:33:02.798Z,27.2
2022-08-26T05:34:03.902Z,27.3
2022-08-26T05:35:04.781Z,27.3
2022-08-26T05:36:05.804Z,27.4
2022-08-26T05:37:06.895Z,27.5
2022-08-26T05:38:12.356Z,27.6
2022-08-26T05:39:10.468Z,27.7
2022-08-26T05:40:10.873Z,27.8
2022-08-26T05:41:11.786Z,27.9
2022-08-26T05:42:12.859Z,27.9
2022-08-26T05:43:13.791Z,28
2022-08-26T05:44:14.790Z,28.1
2022-08-26T05:45:15.792Z,28.2
2022-08-26T05:46:16.825Z,28.4
2022-08-26T05:47:17.834Z,28.7
2022-08-26T05:48:18.799Z,29.1
2022-08-26T05:49:19.804Z,29.5
2022-08-26T05:50:20.796Z,29.9
2022-08-26T05:51:25.836Z,30.3
2022-08-26T05:52:24.604Z,30.6
2022-08-26T05:53:23.868Z,31
2022-08-26T05:54:24.811Z,31.4
2022-08-26T05:55:25.827Z,31.6
2022-08-26T05:56:26.829Z,31.9
2022-08-26T05:57:27.851Z,32.2
2022-08-26T05:58:28.812Z,32.6
2022-08-26T05:59:29.820Z,32.9
2022-08-26T06:00:30.823Z,33.1
2022-08-26T06:01:31.905Z,33.5
2022-08-26T06:02:32.897Z,33.7
2022-08-26T06:03:33.830Z,33.9
2022-08-26T06:04:34.831Z,33.9
2022-08-26T06:05:38.355Z,33.6
2022-08-26T06:06:36.830Z,33.5
2022-08-26T06:07:37.865Z,33.4
2022-08-26T06:08:38.833Z,33.3
2022-08-26T06:09:39.875Z,33.1
2022-08-26T06:10:40.839Z,33
2022-08-26T06:11:41.842Z,33
2022-08-26T06:12:42.880Z,33
2022-08-26T06:13:43.851Z,33.1
2022-08-26T06:14:44.858Z,33.1
2022-08-26T06:15:45.936Z,33.2
2022-08-26T06:16:46.880Z,33
2022-08-26T06:17:47.913Z,32.9
2022-08-26T06:18:49.985Z,32.9
2022-08-26T06:19:53.862Z,33.2
2022-08-26T06:20:57.501Z,33.4
2022-08-26T06:21:55.864Z,33.6
2022-08-26T06:22:56.928Z,33.7
2022-08-26T06:23:57.931Z,33.5
2022-08-26T06:24:59.877Z,33.4
2022-08-26T06:26:00.862Z,33.4
2022-08-26T06:27:01.952Z,33.6
2022-08-26T06:28:03.033Z,33.9
2022-08-26T06:29:04.875Z,34.2
2022-08-26T06:30:05.927Z,34.4
2022-08-26T06:31:07.124Z,34.7
2022-08-26T06:32:08.932Z,35.1
2022-08-26T06:33:10.145Z,35.4
2022-08-26T06:34:11.922Z,35.7
2022-08-26T06:35:12.884Z,35.7
2022-08-26T06:36:14.880Z,35.8
2022-08-26T06:37:15.909Z,35.6
2022-08-26T06:38:16.903Z,35.5
2022-08-26T06:39:17.917Z,35.5
2022-08-26T06:40:19.947Z,35.2
2022-08-26T06:41:20.904Z,34.9
2022-08-26T06:42:22.921Z,34.9
2022-08-26T06:43:23.893Z,34.8
2022-08-26T06:44:25.036Z,34.7
2022-08-26T06:45:26.908Z,34.7
2022-08-26T06:46:28.184Z,34.8
2022-08-26T06:47:29.974Z,35
2022-08-26T06:48:32.166Z,35
2022-08-26T06:49:34.216Z,34.9
2022-08-26T06:50:35.941Z,34.7
2022-08-26T06:51:36.915Z,34.6
2022-08-26T06:52:37.913Z,34.7
2022-08-26T06:53:38.922Z,34.8
2022-08-26T06:54:39.958Z,34.8
2022-08-26T06:55:40.923Z,34.7
2022-08-26T06:56:42.061Z,34.6
2022-08-26T06:57:43.961Z,34.3
2022-08-26T06:58:45.234Z,34
2022-08-26T06:59:46.921Z,33.8
2022-08-26T07:00:47.943Z,33.8
2022-08-26T07:01:49.608Z,33.8
2022-08-26T07:02:51.376Z,33.8
2022-08-26T07:03:52.946Z,34
2022-08-26T07:04:53.931Z,34.3
2022-08-26T07:05:54.939Z,34.6
2022-08-26T07:06:55.971Z,34.8
2022-08-26T07:07:56.355Z,34.8
2022-08-26T07:08:57.365Z,35
2022-08-26T07:09:58.960Z,35.4
2022-08-26T07:10:59.334Z,35.6
2022-08-26T07:12:00.378Z,35.9
2022-08-26T07:13:02.013Z,36.3
2022-08-26T07:14:03.060Z,36.5
2022-08-26T07:15:05.136Z,36.3
2022-08-26T07:16:07.011Z,36.1
2022-08-26T07:17:11.124Z,35.7
2022-08-26T07:18:08.980Z,35.3
2022-08-26T07:19:10.686Z,35.2
2022-08-26T07:20:10.345Z,35.5
2022-08-26T07:21:11.344Z,35.9
2022-08-26T07:22:12.391Z,36.4
2022-08-26T07:23:13.975Z,36.9
2022-08-26T07:24:15.065Z,37.2
2022-08-26T07:25:16.987Z,37.1
2022-08-26T07:26:17.972Z,36.8
2022-08-26T07:27:19.029Z,36.6
2022-08-26T07:28:19.998Z,36.4
2022-08-26T07:29:21.019Z,36.2
2022-08-26T07:30:21.420Z,36
2022-08-26T07:31:22.639Z,36.1
2022-08-26T07:32:23.378Z,36.4
2022-08-26T07:33:24.378Z,36.8
2022-08-26T07:34:25.475Z,37.2
2022-08-26T07:35:26.379Z,37.6
2022-08-26T07:36:27.370Z,37.9
2022-08-26T07:37:28.399Z,38.2
2022-08-26T07:38:30.007Z,38.2
2022-08-26T07:39:31.375Z,38.1
2022-08-26T07:40:31.430Z,37.9
2022-08-26T07:41:32.420Z,37.9
2022-08-26T07:42:34.013Z,38
2022-08-26T07:43:35.026Z,37.9
2022-08-26T07:44:36.010Z,37.7
2022-08-26T07:45:37.050Z,37.4
2022-08-26T07:46:38.051Z,37.1
2022-08-26T07:47:39.055Z,36.9
2022-08-26T07:48:39.397Z,36.9
2022-08-26T07:49:41.072Z,36.7
2022-08-26T07:50:49.634Z,36.8
2022-08-26T07:51:43.054Z,36.6
2022-08-26T07:52:43.420Z,36.7
2022-08-26T07:53:45.041Z,36.6
2022-08-26T07:54:45.473Z,36.5
2022-08-26T07:55:47.029Z,36.5
2022-08-26T07:56:48.036Z,36.4
2022-08-26T07:57:49.253Z,36.1
2022-08-26T07:58:51.692Z,35.7
2022-08-26T07:59:52.095Z,35.4
2022-08-26T08:00:53.040Z,35.1
2022-08-26T08:01:56.053Z,35
2022-08-26T08:03:00.176Z,35
2022-08-26T08:04:02.576Z,35.2
2022-08-26T08:05:04.514Z,35.6
2022-08-26T08:06:05.454Z,36.2
2022-08-26T08:07:07.502Z,36.7
2022-08-26T08:08:17.392Z,36.9
2022-08-26T08:09:08.447Z,37
2022-08-26T08:10:11.557Z,37.1
2022-08-26T08:11:10.448Z,37.4
2022-08-26T08:12:14.087Z,37.4
2022-08-26T08:13:12.451Z,37.2
2022-08-26T08:14:13.451Z,37.1
2022-08-26T08:15:14.514Z,37.4
2022-08-26T08:16:15.468Z,37.8
2022-08-26T08:17:16.455Z,37.9
2022-08-26T08:18:17.460Z,38
2022-08-26T08:19:18.454Z,37.9
2022-08-26T08:20:19.605Z,38
2022-08-26T08:21:21.497Z,38.2
2022-08-26T08:22:22.154Z,38.5
2022-08-26T08:23:24.484Z,38.6
2022-08-26T08:24:25.476Z,38.7
2022-08-26T08:25:26.501Z,38.9
2022-08-26T08:26:27.482Z,39.1
2022-08-26T08:27:28.474Z,39
2022-08-26T08:28:29.467Z,38.9
2022-08-26T08:29:30.481Z,38.8
2022-08-26T08:30:31.591Z,38.8
2022-08-26T08:31:54.759Z,38.9
2022-08-26T08:32:33.484Z,39
2022-08-26T08:33:34.480Z,39.2
2022-08-26T08:34:35.516Z,39.4
2022-08-26T08:35:36.513Z,39.7
2022-08-26T08:36:37.486Z,39.9
2022-08-26T08:37:38.497Z,40.1
2022-08-26T08:38:39.506Z,40.3
2022-08-26T08:39:40.495Z,40.3
2022-08-26T08:40:41.573Z,40.4
2022-08-26T08:41:42.500Z,40.2
2022-08-26T08:42:43.537Z,40.2
2022-08-26T08:43:44.505Z,40.3
2022-08-26T08:44:46.483Z,40.2
2022-08-26T08:45:47.181Z,40
2022-08-26T08:46:47.576Z,39.8
2022-08-26T08:47:48.540Z,39.6
2022-08-26T08:48:49.521Z,39.6
2022-08-26T08:49:50.531Z,39.5
2022-08-26T08:50:51.579Z,39.2
2022-08-26T08:51:52.524Z,39
2022-08-26T08:52:53.544Z,38.9
2022-08-26T08:53:54.711Z,38.7
2022-08-26T08:54:55.537Z,38.8
2022-08-26T08:55:56.560Z,38.7
2022-08-26T08:56:57.541Z,38.7
2022-08-26T08:58:01.664Z,39.1
2022-08-26T08:58:59.556Z,39.4
2022-08-26T09:00:00.552Z,39.9
2022-08-26T09:01:01.634Z,40
2022-08-26T09:02:02.625Z,40.3
2022-08-26T09:03:03.546Z,40.5
2022-08-26T09:04:05.697Z,40.8
2022-08-26T09:05:06.588Z,40.9
2022-08-26T09:06:07.594Z,40.8
2022-08-26T09:07:08.568Z,40.3
2022-08-26T09:08:11.221Z,39.6
2022-08-26T09:09:10.554Z,39.3
2022-08-26T09:10:11.566Z,39.5
2022-08-26T09:11:12.615Z,39.6
2022-08-26T09:12:13.567Z,39.2
2022-08-26T09:13:16.402Z,38.8
2022-08-26T09:14:16.124Z,38.7
2022-08-26T09:15:17.573Z,38.9
2022-08-26T09:16:18.932Z,39.3
2022-08-26T09:17:19.568Z,39.5
2022-08-26T09:18:20.641Z,39.5
2022-08-26T09:19:21.652Z,39.6
2022-08-26T09:20:22.582Z,39.4
2022-08-26T09:21:23.612Z,39.1
2022-08-26T09:22:24.622Z,38.7
2022-08-26T09:23:25.617Z,38.4
2022-08-26T09:24:28.474Z,38
2022-08-26T09:25:27.631Z,38
2022-08-26T09:26:29.648Z,38.2
2022-08-26T09:27:29.592Z,38.4
2022-08-26T09:28:30.638Z,38.3
2022-08-26T09:29:31.597Z,38.4
2022-08-26T09:30:32.649Z,38.4
2022-08-26T09:31:33.616Z,38.6
2022-08-26T09:32:34.864Z,39
2022-08-26T09:33:35.667Z,39.4
2022-08-26T09:34:36.634Z,39.8
2022-08-26T09:35:44.439Z,40.2
2022-08-26T09:36:45.450Z,40.6
2022-08-26T09:38:47.687Z,40.6
2022-08-26T09:39:48.521Z,40.5
2022-08-26T09:40:49.461Z,40.5
2022-08-26T09:41:50.481Z,40.8
2022-08-26T09:42:51.528Z,41.2
2022-08-26T09:43:52.477Z,41.4
2022-08-26T09:44:53.464Z,41.6
2022-08-26T09:45:57.243Z,41.3
2022-08-26T09:46:55.485Z,40.8
2022-08-26T09:47:56.508Z,40.2
2022-08-26T09:48:57.505Z,39.6
2022-08-26T09:49:58.482Z,39.2
2022-08-26T09:50:59.479Z,38.6
2022-08-26T09:52:00.480Z,38
2022-08-26T09:53:01.564Z,37.9
2022-08-26T09:54:02.565Z,37.9
2022-08-26T09:55:03.588Z,38.1
2022-08-26T09:56:04.556Z,38.3
2022-08-26T09:57:05.499Z,38.6
2022-08-26T09:58:07.854Z,39
2022-08-26T09:59:07.614Z,39.5
2022-08-26T10:00:08.553Z,39.8
2022-08-26T10:01:09.546Z,40
2022-08-26T10:02:12.081Z,40.4
2022-08-26T10:03:12.705Z,40.7
2022-08-26T10:04:13.611Z,41.1
2022-08-26T10:05:14.515Z,41.2
2022-08-26T10:06:15.553Z,41
2022-08-26T10:07:16.526Z,40.8
2022-08-26T10:08:17.561Z,40.8
2022-08-26T10:09:18.514Z,40.9
2022-08-26T10:10:19.525Z,41.1
2022-08-26T10:11:20.556Z,41.4
2022-08-26T10:12:21.530Z,41.5
2022-08-26T10:13:23.354Z,41.2
2022-08-26T10:14:23.601Z,40.7
2022-08-26T10:15:24.529Z,40.6
2022-08-26T10:16:28.479Z,40.8
2022-08-26T10:17:27.533Z,41
2022-08-26T10:18:33.304Z,41.2
2022-08-26T10:19:41.349Z,41.5
2022-08-26T10:20:31.582Z,41.8
2022-08-26T10:21:33.634Z,41.9
2022-08-26T10:22:34.517Z,41.5
2022-08-26T10:23:35.602Z,41.3
2022-08-26T10:24:37.644Z,40.8
2022-08-26T10:25:38.558Z,40.2
2022-08-26T10:26:39.611Z,39.6
2022-08-26T10:27:41.496Z,39.2
2022-08-26T10:28:41.565Z,39.1
2022-08-26T10:29:42.569Z,39.2
2022-08-26T10:30:43.597Z,39.3
2022-08-26T10:31:44.680Z,39.4
2022-08-26T10:32:45.563Z,39.3
2022-08-26T10:33:46.606Z,39.4
2022-08-26T10:34:47.566Z,39.3
2022-08-26T10:35:48.580Z,39.2
2022-08-26T10:37:05.435Z,39
2022-08-26T10:37:50.626Z,38.8
2022-08-26T10:38:51.645Z,38.5
2022-08-26T10:39:53.100Z,38.5
2022-08-26T10:40:53.603Z,38.9
2022-08-26T10:41:54.657Z,39.4
2022-08-26T10:42:55.625Z,40
2022-08-26T10:43:56.696Z,40.6
2022-08-26T10:44:58.462Z,40.8
2022-08-26T10:45:58.694Z,40.9
2022-08-26T10:46:59.586Z,40.9
2022-08-26T10:48:00.623Z,40.9
2022-08-26T10:49:03.169Z,40.6
2022-08-26T10:50:03.126Z,40.6
2022-08-26T10:51:03.613Z,40.4
2022-08-26T10:52:04.634Z,40.4
2022-08-26T10:53:05.625Z,40.2
2022-08-26T10:54:06.642Z,39.9
2022-08-26T10:55:08.432Z,39.7
2022-08-26T10:56:15.926Z,39.7
2022-08-26T10:57:09.828Z,39.7
2022-08-26T10:58:11.558Z,39.7
2022-08-26T10:59:12.376Z,39.5
2022-08-26T11:00:12.702Z,39.1
2022-08-26T11:01:13.609Z,39.1
2022-08-26T11:02:14.632Z,39.1
2022-08-26T11:03:21.672Z,39.2
2022-08-26T11:04:16.714Z,39.3
2022-08-26T11:05:17.906Z,39.5
2022-08-26T11:06:18.654Z,39.6
2022-08-26T11:07:19.637Z,39.5
2022-08-26T11:08:20.780Z,39.2
2022-08-26T11:09:21.678Z,39
2022-08-26T11:10:22.688Z,39
2022-08-26T11:11:23.640Z,39.1
2022-08-26T11:12:24.689Z,39.4
2022-08-26T11:13:25.642Z,39.7
2022-08-26T11:14:28.634Z,39.8
2022-08-26T11:15:27.700Z,40.1
2022-08-26T11:16:28.729Z,40.5
2022-08-26T11:17:29.697Z,40.8
2022-08-26T11:18:30.670Z,40.7
2022-08-26T11:19:45.544Z,40.5
2022-08-26T11:20:32.693Z,40.6
2022-08-26T11:21:33.668Z,40.8
2022-08-26T11:22:34.670Z,41.1
2022-08-26T11:23:35.655Z,41.3
2022-08-26T11:24:36.661Z,41.1
2022-08-26T11:25:37.701Z,41
2022-08-26T11:26:55.167Z,40.7
2022-08-26T11:27:39.739Z,40.6
2022-08-26T11:28:40.681Z,40.5
2022-08-26T11:29:41.682Z,40.6
2022-08-26T11:30:42.712Z,40.7
2022-08-26T11:31:43.765Z,40.7
2022-08-26T11:32:44.680Z,40.5
2022-08-26T11:33:45.696Z,40.5
2022-08-26T11:34:46.680Z,40.5
2022-08-26T11:35:47.752Z,40.3
2022-08-26T11:36:48.701Z,40.1
2022-08-26T11:37:49.691Z,40.3
2022-08-26T11:38:50.696Z,40.5
2022-08-26T11:39:54.924Z,40.7
2022-08-26T11:40:53.106Z,40.4
2022-08-26T11:41:53.730Z,40.1
2022-08-26T11:42:54.797Z,40
2022-08-26T11:43:55.797Z,39.8
2022-08-26T11:44:58.020Z,39.9
2022-08-26T11:45:57.826Z,40.1
2022-08-26T11:46:58.803Z,40.2
2022-08-26T11:47:59.781Z,40.2
2022-08-26T11:49:00.742Z,40.1
2022-08-26T11:50:02.068Z,40.2
2022-08-26T11:51:02.750Z,40.2
2022-08-26T11:52:03.775Z,40.1
2022-08-26T11:53:06.089Z,39.8
2022-08-26T11:54:05.789Z,39.6
2022-08-26T11:55:06.756Z,39.6
2022-08-26T11:56:07.736Z,39.4
2022-08-26T11:57:09.596Z,39.3
2022-08-26T11:58:09.876Z,39.4
2022-08-26T11:59:10.758Z,39.2
2022-08-26T12:00:13.670Z,39.1
2022-08-26T12:01:12.736Z,39.3
2022-08-26T12:02:13.742Z,39.6
2022-08-26T12:03:14.790Z,39.6
2022-08-26T12:04:15.857Z,39.4
2022-08-26T12:05:16.768Z,39.4
2022-08-26T12:06:17.843Z,39.5
2022-08-26T12:07:23.915Z,39.4
2022-08-26T12:08:19.798Z,39.5
2022-08-26T12:09:20.822Z,39.6
2022-08-26T12:10:21.760Z,39.8
2022-08-26T12:11:22.756Z,39.9
2022-08-26T12:12:23.762Z,39.8
2022-08-26T12:13:24.980Z,39.6
2022-08-26T12:14:25.792Z,39.6
2022-08-26T12:15:26.777Z,39.6
2022-08-26T12:16:27.800Z,39.6
2022-08-26T12:17:28.919Z,39.6
2022-08-26T12:18:30.138Z,39.5
2022-08-26T12:19:32.612Z,39.5
2022-08-26T12:20:33.867Z,39.6
2022-08-26T12:21:35.086Z,39.6
2022-08-26T12:22:36.807Z,39.3
2022-08-26T12:23:38.430Z,39.3
2022-08-26T12:24:40.076Z,39.5
2022-08-26T12:25:41.790Z,39.4
2022-08-26T12:26:43.265Z,39.5
2022-08-26T12:27:43.840Z,39.5
2022-08-26T12:28:44.803Z,39.8
2022-08-26T12:29:48.551Z,40.1
2022-08-26T12:30:46.847Z,40.5
2022-08-26T12:31:47.960Z,40.8
2022-08-26T12:32:57.348Z,40.9
2022-08-26T12:33:50.819Z,41.2
2022-08-26T12:34:51.924Z,41.4
2022-08-26T12:35:56.452Z,41.3
2022-08-26T12:36:54.865Z,41.2
2022-08-26T12:37:55.941Z,40.9
2022-08-26T12:38:58.369Z,40.7
2022-08-26T12:39:57.899Z,40.3
2022-08-26T12:40:59.122Z,40.3
2022-08-26T12:41:59.861Z,40.1
2022-08-26T12:43:00.884Z,39.9
2022-08-26T12:44:02.432Z,39.8
2022-08-26T12:45:03.925Z,39.8
2022-08-26T12:46:06.530Z,39.8
2022-08-26T12:47:07.368Z,40.1
2022-08-26T12:48:10.173Z,40
2022-08-26T12:49:15.593Z,40
2022-08-26T12:50:17.220Z,39.8
2022-08-26T12:51:18.876Z,39.4
2022-08-26T12:52:21.307Z,39.1
2022-08-26T12:53:23.589Z,39
2022-08-26T12:54:26.359Z,39.1
2022-08-26T12:55:28.875Z,39.2
2022-08-26T12:56:31.878Z,39.3
2022-08-26T12:57:32.882Z,39.5
2022-08-26T12:58:34.683Z,39.6
2022-08-26T12:59:35.891Z,39.4
2022-08-26T13:00:36.899Z,39.3
2022-08-26T13:01:38.470Z,39.1
2022-08-26T13:02:39.896Z,38.9
2022-08-26T13:03:41.476Z,39
2022-08-26T13:04:43.427Z,39.3
2022-08-26T13:05:45.235Z,39.5
2022-08-26T13:06:47.182Z,39.6
2022-08-26T13:07:47.922Z,39.5
2022-08-26T13:08:49.068Z,39.4
2022-08-26T13:09:49.912Z,39.2
2022-08-26T13:10:51.913Z,39.2
2022-08-26T13:11:53.407Z,39.2
2022-08-26T13:12:53.917Z,39.2
2022-08-26T13:13:55.898Z,38.8
2022-08-26T13:14:56.944Z,38.6
2022-08-26T13:15:57.991Z,38.7
2022-08-26T13:16:59.985Z,38.7
2022-08-26T13:18:01.121Z,38.9
2022-08-26T13:19:03.389Z,38.9
2022-08-26T13:20:04.971Z,38.7
2022-08-26T13:21:05.938Z,38.8
2022-08-26T13:22:07.175Z,39
2022-08-26T13:23:10.217Z,39.1
2022-08-26T13:24:11.990Z,39.5
2022-08-26T13:25:13.441Z,39.7
2022-08-26T13:26:14.936Z,39.9
2022-08-26T13:27:16.940Z,40
2022-08-26T13:28:17.946Z,40.2
2022-08-26T13:29:18.973Z,40.3
2022-08-26T13:30:19.991Z,40.2
2022-08-26T13:31:21.014Z,39.7
2022-08-26T13:32:21.922Z,39.2
2022-08-26T13:33:22.947Z,38.9
2022-08-26T13:34:23.985Z,38.7
2022-08-26T13:35:24.963Z,38.7
2022-08-26T13:36:25.979Z,38.6
2022-08-26T13:37:34.124Z,38.7
2022-08-26T13:38:33.075Z,39
2022-08-26T13:39:28.996Z,39.2
2022-08-26T13:40:33.918Z,39.1